Time;durP1;ratioP1;P1;durP2;ratioP2;P2;SDS_P1;SDS_P2;PMS_P1;PMS_P2;Temp;Humidity;BMP_temperature;BMP_pressure;BME280_temperature;BME280_humidity;BME280_pressure;Samples;Min_cycle;Max_cycle;Signal;HPM_P1;HPM_P2
2021/03/30 00:03:03;;;;;;;5.67;2.33;;;;;;;;;;5081832;28;20218;-73
2021/03/30 00:06:07;;;;;;;2.77;2.10;;;;;;;;;;5094263;28;20625;-73
2021/03/30 00:09:12;;;;;;;4.67;1.97;;;;;;;;;;5093435;28;20202;-73
2021/03/30 00:12:17;;;;;;;3.17;2.13;;;;;;;;;;5041512;28;20215;-73
2021/03/30 00:15:20;;;;;;;3.23;1.90;;;;;;;;;;5042145;28;20180;-73
2021/03/30 00:18:24;;;;;;;5.03;2.43;;;;;;;;;;5066894;28;20175;-73
2021/03/30 00:21:29;;;;;;;2.63;1.80;;;;;;;;;;5050752;28;20196;-73
2021/03/30 00:24:33;;;;;;;4.27;2.43;;;;;;;;;;5061314;28;20570;-73
2021/03/30 00:27:38;;;;;;;5.17;2.53;;;;;;;;;;5061109;28;20219;-73
2021/03/30 00:30:46;;;;;;;4.17;2.17;;;;;;;;;;5086124;28;20183;-73
2021/03/30 00:33:50;;;;;;;3.10;2.13;;;;;;;;;;5053769;28;20176;-73
2021/03/30 00:36:54;;;;;;;6.00;2.50;;;;;;;;;;5040793;28;20639;-73
2021/03/30 00:39:58;;;;;;;6.03;2.50;;;;;;;;;;5053482;28;20179;-73
2021/03/30 00:43:04;;;;;;;5.33;2.33;;;;;;;;;;5093399;28;20582;-73
2021/03/30 00:46:13;;;;;;;6.57;2.17;;;;;;;;;;5093806;28;20183;-73
2021/03/30 00:49:21;;;;;;;4.67;2.23;;;;;;;;;;5078904;28;20249;-73
2021/03/30 00:52:26;;;;;;;4.27;2.20;;;;;;;;;;5060796;28;20215;-73
2021/03/30 00:56:00;;;;;;;4.53;2.50;;;;;;;;;;5010984;28;20203;-73
2021/03/30 00:59:05;;;;;;;8.13;3.10;;;;;;;;;;5072854;28;20219;-73
2021/03/30 01:02:10;;;;;;;5.10;2.70;;;;;;;;;;5040773;28;20622;-73
2021/03/30 01:05:14;;;;;;;3.47;2.90;;;;;;;;;;5068893;28;20198;-73
2021/03/30 01:08:26;;;;;;;5.53;3.03;;;;;;;;;;5072962;28;20226;-73
2021/03/30 01:11:44;;;;;;;7.67;3.10;;;;;;;;;;5091032;28;20218;-73
2021/03/30 01:14:58;;;;;;;8.37;3.00;;;;;;;;;;5091217;28;20195;-73
2021/03/30 01:18:08;;;;;;;4.40;2.93;;;;;;;;;;5075504;28;20203;-73
2021/03/30 01:21:30;;;;;;;4.57;2.80;;;;;;;;;;5044794;28;20987;-73
2021/03/30 01:24:44;;;;;;;6.77;3.07;;;;;;;;;;5029326;28;20172;-73
2021/03/30 01:28:23;;;;;;;5.63;3.00;;;;;;;;;;5092706;28;20613;-73
2021/03/30 01:31:32;;;;;;;5.10;3.57;;;;;;;;;;5075441;28;20650;-73
2021/03/30 01:34:38;;;;;;;6.73;3.03;;;;;;;;;;5072966;28;20555;-73
2021/03/30 01:37:46;;;;;;;5.37;2.83;;;;;;;;;;5073072;28;20586;-73
2021/03/30 01:40:53;;;;;;;7.90;2.63;;;;;;;;;;5078348;28;20589;-73
2021/03/30 01:43:58;;;;;;;4.10;2.50;;;;;;;;;;5072589;28;20630;-73
2021/03/30 01:47:03;;;;;;;5.70;2.70;;;;;;;;;;5067253;28;20203;-73
2021/03/30 01:50:12;;;;;;;3.90;2.60;;;;;;;;;;5047102;28;20577;-73
2021/03/30 01:53:21;;;;;;;4.00;2.47;;;;;;;;;;5084561;28;21181;-73
2021/03/30 01:56:27;;;;;;;4.57;3.00;;;;;;;;;;5096463;28;20588;-73
2021/03/30 01:59:33;;;;;;;3.57;2.77;;;;;;;;;;5036805;28;20531;-74
2021/03/30 02:02:40;;;;;;;6.60;3.20;;;;;;;;;;5096254;28;20648;-73
2021/03/30 02:05:45;;;;;;;6.13;3.07;;;;;;;;;;5084502;28;20179;-73
2021/03/30 02:08:49;;;;;;;6.03;2.87;;;;;;;;;;5096696;28;20596;-73
2021/03/30 02:12:06;;;;;;;5.50;3.10;;;;;;;;;;5056319;28;20634;-73
2021/03/30 02:15:15;;;;;;;6.67;3.33;;;;;;;;;;5053098;28;20585;-73
2021/03/30 02:18:21;;;;;;;6.77;2.97;;;;;;;;;;5084125;28;20891;-73
2021/03/30 02:21:33;;;;;;;6.87;3.50;;;;;;;;;;5074458;28;20588;-73
2021/03/30 02:24:39;;;;;;;4.57;3.10;;;;;;;;;;5096151;28;20592;-73
2021/03/30 02:27:44;;;;;;;4.20;3.17;;;;;;;;;;5083495;28;20589;-73
2021/03/30 02:30:50;;;;;;;4.97;3.33;;;;;;;;;;5084060;28;20589;-73
2021/03/30 02:33:57;;;;;;;4.93;3.23;;;;;;;;;;5089249;28;20593;-73
2021/03/30 02:37:02;;;;;;;4.63;3.00;;;;;;;;;;5095909;28;20596;-73
2021/03/30 02:40:09;;;;;;;6.87;3.60;;;;;;;;;;5090220;28;20586;-73
2021/03/30 02:43:16;;;;;;;7.13;3.90;;;;;;;;;;5075368;28;20636;-73
2021/03/30 02:46:21;;;;;;;6.77;3.63;;;;;;;;;;5063231;28;20946;-73
2021/03/30 02:49:26;;;;;;;6.63;3.73;;;;;;;;;;5062997;28;20610;-73
2021/03/30 02:52:33;;;;;;;5.53;3.67;;;;;;;;;;5055306;28;20626;-73
2021/03/30 02:55:39;;;;;;;5.70;3.90;;;;;;;;;;5069970;28;20589;-73
2021/03/30 02:58:44;;;;;;;6.00;3.60;;;;;;;;;;5074766;28;20589;-73
2021/03/30 03:01:50;;;;;;;7.27;3.57;;;;;;;;;;5094338;28;21225;-73
2021/03/30 03:04:54;;;;;;;5.70;3.47;;;;;;;;;;5095686;28;20537;-73
2021/03/30 03:07:59;;;;;;;13.03;3.60;;;;;;;;;;5055278;28;20547;-73
2021/03/30 03:11:04;;;;;;;11.53;3.80;;;;;;;;;;5081056;28;20948;-73
2021/03/30 03:14:10;;;;;;;7.77;3.40;;;;;;;;;;5085018;28;20617;-73
2021/03/30 03:17:15;;;;;;;6.60;3.40;;;;;;;;;;5062943;28;20542;-73
2021/03/30 03:20:20;;;;;;;6.40;3.27;;;;;;;;;;5069165;28;20585;-73
2021/03/30 03:23:25;;;;;;;6.30;3.50;;;;;;;;;;5080990;28;20624;-73
2021/03/30 03:26:31;;;;;;;7.00;3.03;;;;;;;;;;5074933;28;20550;-73
2021/03/30 03:29:36;;;;;;;8.67;3.63;;;;;;;;;;5075281;28;20594;-73
2021/03/30 03:32:41;;;;;;;9.13;3.80;;;;;;;;;;5094469;28;20648;-73
2021/03/30 03:36:08;;;;;;;4.83;3.40;;;;;;;;;;5082645;28;20549;-73
2021/03/30 03:39:15;;;;;;;8.43;3.97;;;;;;;;;;5077731;28;20574;-73
2021/03/30 03:42:20;;;;;;;5.07;3.90;;;;;;;;;;5082950;28;20636;-74
2021/03/30 03:45:24;;;;;;;6.73;3.97;;;;;;;;;;5078771;22;20701;-72
2021/03/30 03:48:29;;;;;;;10.93;3.50;;;;;;;;;;5053342;28;20621;-72
2021/03/30 03:51:37;;;;;;;12.10;3.93;;;;;;;;;;5051328;28;20651;-71
2021/03/30 03:54:43;;;;;;;7.90;3.73;;;;;;;;;;5034645;28;20540;-71
2021/03/30 03:57:51;;;;;;;7.60;3.10;;;;;;;;;;5034164;28;20596;-73
2021/03/30 04:00:55;;;;;;;8.57;4.00;;;;;;;;;;5052814;28;20926;-73
2021/03/30 04:04:01;;;;;;;5.07;3.50;;;;;;;;;;5034935;28;21078;-72
2021/03/30 04:07:07;;;;;;;7.87;3.73;;;;;;;;;;5041797;28;20555;-73
2021/03/30 04:10:12;;;;;;;6.80;3.50;;;;;;;;;;5041122;28;20630;-73
2021/03/30 04:13:18;;;;;;;7.43;3.97;;;;;;;;;;5040410;28;20646;-73
2021/03/30 04:16:23;;;;;;;5.77;3.73;;;;;;;;;;5053316;28;20587;-73
2021/03/30 04:19:27;;;;;;;5.60;3.67;;;;;;;;;;5053680;28;20586;-73
2021/03/30 04:22:31;;;;;;;7.50;4.17;;;;;;;;;;5041147;28;20650;-73
2021/03/30 04:25:35;;;;;;;5.70;3.83;;;;;;;;;;5039561;28;20591;-73
2021/03/30 04:28:39;;;;;;;7.77;4.17;;;;;;;;;;5041259;28;20547;-74
2021/03/30 04:31:44;;;;;;;7.43;3.70;;;;;;;;;;5052984;28;20646;-73
2021/03/30 04:34:49;;;;;;;4.83;3.63;;;;;;;;;;5040222;28;20934;-73
2021/03/30 04:37:53;;;;;;;6.67;3.90;;;;;;;;;;5053778;28;21081;-72
2021/03/30 04:40:58;;;;;;;7.77;3.93;;;;;;;;;;5052699;28;20594;-73
2021/03/30 04:44:02;;;;;;;6.40;3.90;;;;;;;;;;5041095;28;20583;-74
2021/03/30 04:47:06;;;;;;;6.10;3.50;;;;;;;;;;5041325;28;20535;-73
2021/03/30 04:50:11;;;;;;;6.17;4.20;;;;;;;;;;5053245;28;20626;-73
2021/03/30 04:53:15;;;;;;;11.73;6.87;;;;;;;;;;5052875;28;20650;-72
2021/03/30 04:56:19;;;;;;;18.07;10.57;;;;;;;;;;5053580;28;20551;-72
2021/03/30 04:59:23;;;;;;;18.27;9.90;;;;;;;;;;5053281;28;20926;-72
2021/03/30 05:02:28;;;;;;;14.37;7.57;;;;;;;;;;5052846;28;20642;-73
2021/03/30 05:05:32;;;;;;;10.77;4.70;;;;;;;;;;5053041;28;20551;-73
2021/03/30 05:08:37;;;;;;;5.43;4.17;;;;;;;;;;5053123;28;20598;-73
2021/03/30 05:11:41;;;;;;;6.37;3.90;;;;;;;;;;5044702;28;20646;-72
2021/03/30 05:14:45;;;;;;;5.93;4.27;;;;;;;;;;5021373;28;20602;-73
2021/03/30 05:17:49;;;;;;;6.60;4.10;;;;;;;;;;5045022;28;20586;-73
2021/03/30 05:20:53;;;;;;;13.93;4.97;;;;;;;;;;5028921;28;20586;-73
2021/03/30 05:23:58;;;;;;;12.90;4.03;;;;;;;;;;5043967;28;20602;-73
2021/03/30 05:27:02;;;;;;;7.77;4.17;;;;;;;;;;5056777;28;20906;-72
2021/03/30 05:30:09;;;;;;;16.83;4.47;;;;;;;;;;5056793;28;20629;-73
2021/03/30 05:33:13;;;;;;;33.63;5.93;;;;;;;;;;5033515;28;20622;-74
2021/03/30 05:36:17;;;;;;;19.03;5.20;;;;;;;;;;5056935;28;20558;-72
2021/03/30 05:39:21;;;;;;;7.27;4.30;;;;;;;;;;5056325;28;20614;-72
2021/03/30 05:42:26;;;;;;;10.97;4.37;;;;;;;;;;5056607;28;20622;-72
2021/03/30 05:45:30;;;;;;;8.73;3.77;;;;;;;;;;5056546;28;20965;-72
2021/03/30 05:48:35;;;;;;;8.30;4.03;;;;;;;;;;5056334;28;21143;-72
2021/03/30 05:51:41;;;;;;;6.50;4.00;;;;;;;;;;5056383;28;20638;-73
2021/03/30 05:54:47;;;;;;;12.80;3.70;;;;;;;;;;5057040;28;20543;-72
2021/03/30 05:57:54;;;;;;;9.50;3.87;;;;;;;;;;5037138;28;20896;-72
2021/03/30 06:01:04;;;;;;;10.43;4.33;;;;;;;;;;5043984;28;20591;-73
2021/03/30 06:04:10;;;;;;;12.20;4.77;;;;;;;;;;5052154;28;21141;-73
2021/03/30 06:07:15;;;;;;;14.77;4.93;;;;;;;;;;5035141;28;21153;-72
2021/03/30 06:10:23;;;;;;;17.67;5.40;;;;;;;;;;5024323;28;20591;-72
2021/03/30 06:13:47;;;;;;;16.30;8.43;;;;;;;;;;5036444;28;20618;-72
2021/03/30 06:16:51;;;;;;;17.77;6.50;;;;;;;;;;5036717;28;20177;-72
2021/03/30 06:19:57;;;;;;;17.03;6.70;;;;;;;;;;5023920;28;20599;-72
2021/03/30 06:23:04;;;;;;;13.50;5.97;;;;;;;;;;5037998;28;20619;-72
2021/03/30 06:26:17;;;;;;;10.33;5.47;;;;;;;;;;5055959;28;20188;-72
2021/03/30 06:29:35;;;;;;;12.40;6.37;;;;;;;;;;5056098;28;20212;-72
2021/03/30 06:32:39;;;;;;;15.63;7.37;;;;;;;;;;5055746;28;20220;-72
2021/03/30 06:35:43;;;;;;;18.43;8.50;;;;;;;;;;5054923;28;20176;-73
2021/03/30 06:38:52;;;;;;;19.00;9.07;;;;;;;;;;5055642;28;20200;-72
2021/03/30 06:42:01;;;;;;;21.73;8.97;;;;;;;;;;5043433;28;20211;-72
2021/03/30 06:45:16;;;;;;;20.63;9.73;;;;;;;;;;5055584;28;20208;-73
2021/03/30 06:48:20;;;;;;;17.93;8.27;;;;;;;;;;5043475;28;20184;-73
2021/03/30 06:51:24;;;;;;;15.63;8.67;;;;;;;;;;5055298;28;20203;-72
2021/03/30 06:54:29;;;;;;;14.00;7.13;;;;;;;;;;5055677;28;20635;-73
2021/03/30 06:57:35;;;;;;;13.20;7.17;;;;;;;;;;5043179;28;20180;-73
2021/03/30 07:00:39;;;;;;;10.97;6.30;;;;;;;;;;5020316;28;20193;-72
2021/03/30 07:03:44;;;;;;;23.03;7.33;;;;;;;;;;5035418;28;20639;-73
2021/03/30 07:06:50;;;;;;;12.87;7.10;;;;;;;;;;5023139;28;20181;-72
2021/03/30 07:09:54;;;;;;;15.03;6.30;;;;;;;;;;5035430;28;20205;-73
2021/03/30 07:12:58;;;;;;;14.60;6.70;;;;;;;;;;5022839;28;20225;-72
2021/03/30 07:16:13;;;;;;;12.20;5.70;;;;;;;;;;5035098;28;20624;-72
2021/03/30 07:19:25;;;;;;;10.40;6.20;;;;;;;;;;5035253;28;20189;-72
2021/03/30 07:22:31;;;;;;;14.23;5.83;;;;;;;;;;5034891;28;20220;-72
2021/03/30 07:25:41;;;;;;;9.17;5.27;;;;;;;;;;5035228;28;20196;-72
2021/03/30 07:28:49;;;;;;;12.47;5.53;;;;;;;;;;5035098;28;20177;-72
2021/03/30 07:32:08;;;;;;;7.00;5.17;;;;;;;;;;5053099;28;20213;-73
2021/03/30 07:35:17;;;;;;;9.37;5.10;;;;;;;;;;5034951;28;20181;-73
2021/03/30 07:38:25;;;;;;;10.40;5.20;;;;;;;;;;5038581;28;20196;-72
2021/03/30 07:41:29;;;;;;;8.17;4.50;;;;;;;;;;5054315;28;20531;-72
2021/03/30 07:44:34;;;;;;;9.73;4.50;;;;;;;;;;5054326;28;20196;-73
2021/03/30 07:47:39;;;;;;;7.00;4.50;;;;;;;;;;5042336;28;20204;-74
2021/03/30 07:50:54;;;;;;;9.50;4.37;;;;;;;;;;5034300;28;20225;-73
2021/03/30 07:54:20;;;;;;;7.67;4.03;;;;;;;;;;5035481;28;20197;-70
2021/03/30 07:58:04;;;;;;;12.97;4.43;;;;;;;;;;5043162;28;20200;-70
2021/03/30 08:01:11;;;;;;;5.37;3.70;;;;;;;;;;5034151;28;20177;-70
2021/03/30 08:04:23;;;;;;;7.67;4.03;;;;;;;;;;5034272;28;20177;-71
2021/03/30 08:07:51;;;;;;;9.80;4.90;;;;;;;;;;5040403;28;20229;-71
2021/03/30 08:10:55;;;;;;;8.57;4.97;;;;;;;;;;5041898;28;20666;-71
2021/03/30 08:14:00;;;;;;;8.37;4.47;;;;;;;;;;5041494;28;20191;-70
2021/03/30 08:17:08;;;;;;;7.93;5.07;;;;;;;;;;5054111;28;20196;-71
2021/03/30 08:20:16;;;;;;;8.13;4.87;;;;;;;;;;5041694;28;20177;-70
2021/03/30 08:23:20;;;;;;;7.30;4.67;;;;;;;;;;5047123;28;20224;-70
2021/03/30 08:26:28;;;;;;;11.20;4.93;;;;;;;;;;5050003;28;20200;-70
2021/03/30 08:29:34;;;;;;;10.80;5.27;;;;;;;;;;5033725;28;20650;-70
2021/03/30 08:32:44;;;;;;;8.37;5.37;;;;;;;;;;5033822;28;20557;-70
2021/03/30 08:35:48;;;;;;;6.57;5.17;;;;;;;;;;5050225;28;20212;-70
2021/03/30 08:38:55;;;;;;;11.43;5.47;;;;;;;;;;5051826;28;20199;-70
2021/03/30 08:42:16;;;;;;;9.97;4.83;;;;;;;;;;5054555;28;20224;-71
2021/03/30 08:45:21;;;;;;;7.00;5.07;;;;;;;;;;5049824;28;20208;-70
2021/03/30 08:48:49;;;;;;;13.17;6.10;;;;;;;;;;5052394;28;20203;-70
2021/03/30 08:52:08;;;;;;;13.10;5.30;;;;;;;;;;5029566;28;20690;-71
2021/03/30 08:55:13;;;;;;;10.57;5.00;;;;;;;;;;5040264;28;20203;-71
2021/03/30 08:58:18;;;;;;;12.10;5.40;;;;;;;;;;5032868;28;20185;-70
2021/03/30 09:01:22;;;;;;;8.67;5.87;;;;;;;;;;5025459;28;20184;-70
2021/03/30 09:04:32;;;;;;;9.83;5.50;;;;;;;;;;5052849;28;20196;-70
2021/03/30 09:07:44;;;;;;;12.60;6.47;;;;;;;;;;5033104;28;20204;-71
2021/03/30 09:10:48;;;;;;;15.13;6.00;;;;;;;;;;5027273;28;20208;-70
2021/03/30 09:14:05;;;;;;;11.37;6.90;;;;;;;;;;5053200;28;20184;-71
2021/03/30 09:17:11;;;;;;;9.70;5.83;;;;;;;;;;5052601;28;20193;-70
2021/03/30 09:20:18;;;;;;;13.63;6.23;;;;;;;;;;5040752;28;20176;-70
2021/03/30 09:23:26;;;;;;;18.17;6.20;;;;;;;;;;5032850;28;20216;-71
2021/03/30 09:26:36;;;;;;;12.47;5.70;;;;;;;;;;5036625;28;20196;-70
2021/03/30 09:29:41;;;;;;;13.70;6.80;;;;;;;;;;5052767;28;20192;-70
2021/03/30 09:32:46;;;;;;;19.40;6.57;;;;;;;;;;5046010;28;20208;-70
2021/03/30 09:35:58;;;;;;;17.00;7.10;;;;;;;;;;5034412;28;20197;-71
2021/03/30 09:39:17;;;;;;;17.40;6.57;;;;;;;;;;5012115;28;20540;-70
2021/03/30 09:42:22;;;;;;;11.30;6.10;;;;;;;;;;5052294;28;20216;-70
2021/03/30 09:45:31;;;;;;;9.13;6.00;;;;;;;;;;5035096;28;20206;-70
2021/03/30 09:48:36;;;;;;;14.30;6.63;;;;;;;;;;5038537;28;20200;-70
2021/03/30 09:51:42;;;;;;;9.13;6.87;;;;;;;;;;5046483;28;20224;-71
2021/03/30 09:54:47;;;;;;;9.20;6.23;;;;;;;;;;5052906;28;20627;-73
2021/03/30 09:58:01;;;;;;;7.50;5.97;;;;;;;;;;5052330;28;20200;-72
2021/03/30 10:01:05;;;;;;;9.73;6.97;;;;;;;;;;5052049;28;20194;-72
2021/03/30 10:04:11;;;;;;;10.17;6.63;;;;;;;;;;5040105;28;20661;-72
2021/03/30 10:07:17;;;;;;;12.50;6.90;;;;;;;;;;5091629;22;20228;-85
2021/03/30 10:10:21;;;;;;;12.90;7.53;;;;;;;;;;5016880;28;20410;-84
2021/03/30 10:13:34;;;;;;;8.10;6.67;;;;;;;;;;5021870;28;20534;-85
2021/03/30 10:16:39;;;;;;;12.77;6.80;;;;;;;;;;5035388;28;20563;-85
2021/03/30 10:19:48;;;;;;;7.37;5.80;;;;;;;;;;5042862;28;20207;-85
2021/03/30 10:22:53;;;;;;;15.07;7.37;;;;;;;;;;5011424;28;20191;-85
2021/03/30 10:25:57;;;;;;;12.00;7.93;;;;;;;;;;5043567;28;20206;-85
2021/03/30 10:29:05;;;;;;;13.30;7.10;;;;;;;;;;5056197;28;20207;-86
2021/03/30 10:32:18;;;;;;;9.85;8.05;;;;;;;;;;5020333;28;20216;-86
2021/03/30 10:35:23;;;;;;;14.63;6.07;;;;;;;;;;5056761;28;20200;-85
2021/03/30 10:38:27;;;;;;;9.73;7.47;;;;;;;;;;5032480;28;20217;-85
2021/03/30 10:41:40;;;;;;;10.68;6.35;;;;;;;;;;5024951;28;20199;-85
2021/03/30 10:44:46;;;;;;;7.65;5.95;;;;;;;;;;5022736;28;20641;-86
2021/03/30 10:47:59;;;;;;;8.57;6.72;;;;;;;;;;5031476;28;20218;-86
2021/03/30 10:51:04;;;;;;;9.57;6.53;;;;;;;;;;5015480;28;20556;-86
2021/03/30 10:54:13;;;;;;;9.55;6.97;;;;;;;;;;5014468;28;20187;-86
2021/03/30 10:57:20;;;;;;;9.27;7.10;;;;;;;;;;5014943;28;20219;-86
2021/03/30 11:00:24;;;;;;;9.82;7.70;;;;;;;;;;5022680;28;20183;-86
2021/03/30 11:03:28;;;;;;;10.10;7.10;;;;;;;;;;5032850;28;20189;-86
2021/03/30 11:06:32;;;;;;;8.68;6.47;;;;;;;;;;5031696;28;20200;-89
2021/03/30 11:09:37;;;;;;;8.88;6.53;;;;;;;;;;5031715;28;20190;-89
2021/03/30 11:12:42;;;;;;;10.43;6.78;;;;;;;;;;5031384;28;20216;-89
2021/03/30 11:15:46;;;;;;;10.85;7.28;;;;;;;;;;5043097;28;20196;-89
2021/03/30 11:18:50;;;;;;;13.13;7.82;;;;;;;;;;5032391;28;20539;-86
2021/03/30 11:21:54;;;;;;;8.20;5.65;;;;;;;;;;5020198;28;20181;-90
2021/03/30 11:25:02;;;;;;;11.30;7.57;;;;;;;;;;5031825;28;20188;-86
2021/03/30 11:28:10;;;;;;;9.18;6.97;;;;;;;;;;5020298;28;20217;-86
2021/03/30 11:31:33;;;;;;;8.48;5.93;;;;;;;;;;5031850;28;20210;-89
2021/03/30 11:34:50;;;;;;;8.25;5.72;;;;;;;;;;5031220;28;20193;-89
2021/03/30 11:38:09;;;;;;;10.23;6.22;;;;;;;;;;5020439;28;20217;-89
2021/03/30 11:41:14;;;;;;;9.82;5.90;;;;;;;;;;5031842;28;20179;-86
2021/03/30 11:44:17;;;;;;;10.30;5.53;;;;;;;;;;5020070;28;20182;-86
2021/03/30 11:47:22;;;;;;;10.73;5.80;;;;;;;;;;5019525;28;20221;-89
2021/03/30 11:50:27;;;;;;;8.98;6.53;;;;;;;;;;5011520;28;20191;-89
2021/03/30 11:53:32;;;;;;;7.22;5.45;;;;;;;;;;5000556;28;20189;-86
2021/03/30 11:56:36;;;;;;;14.63;6.20;;;;;;;;;;5012701;28;20186;-90
2021/03/30 11:59:40;;;;;;;9.27;5.95;;;;;;;;;;5025182;28;20670;-90
2021/03/30 12:02:45;;;;;;;10.60;6.38;;;;;;;;;;5020083;28;20179;-90
2021/03/30 12:05:50;;;;;;;9.32;5.43;;;;;;;;;;5036489;28;20647;-87
2021/03/30 12:08:54;;;;;;;11.43;6.60;;;;;;;;;;5017748;28;20179;-87
2021/03/30 12:11:58;;;;;;;9.55;6.00;;;;;;;;;;5020692;28;20221;-85
2021/03/30 12:15:06;;;;;;;9.75;5.30;;;;;;;;;;5031144;28;20186;-91
2021/03/30 12:18:10;;;;;;;8.00;6.03;;;;;;;;;;5010779;28;20752;-87
2021/03/30 12:21:14;;;;;;;8.15;5.90;;;;;;;;;;4998420;28;20722;-86
2021/03/30 12:24:18;;;;;;;7.07;5.13;;;;;;;;;;5022027;28;20728;-88
2021/03/30 12:27:22;;;;;;;8.75;6.22;;;;;;;;;;5020466;28;20635;-89
2021/03/30 12:30:26;;;;;;;8.55;6.20;;;;;;;;;;5019787;28;20179;-87
2021/03/30 12:33:30;;;;;;;9.73;5.10;;;;;;;;;;5019106;28;20516;-86
2021/03/30 12:36:35;;;;;;;8.75;5.72;;;;;;;;;;5029335;28;20720;-85
2021/03/30 12:39:39;;;;;;;16.92;5.20;;;;;;;;;;5019057;28;20197;-85
2021/03/30 12:42:43;;;;;;;6.82;4.30;;;;;;;;;;5029970;28;20193;-86
2021/03/30 12:45:47;;;;;;;5.15;4.22;;;;;;;;;;5029740;28;20202;-86
2021/03/30 12:48:52;;;;;;;4.45;3.80;;;;;;;;;;5030637;28;20552;-85
2021/03/30 12:51:56;;;;;;;7.18;4.38;;;;;;;;;;5040798;28;20680;-86
2021/03/30 12:55:07;;;;;;;10.63;4.18;;;;;;;;;;5018996;28;20189;-85
2021/03/30 12:58:11;;;;;;;6.13;4.25;;;;;;;;;;5018745;28;20222;-85
2021/03/30 13:01:15;;;;;;;7.68;4.18;;;;;;;;;;5018887;28;20198;-85
2021/03/30 13:04:20;;;;;;;8.50;4.28;;;;;;;;;;5010685;28;20187;-86
2021/03/30 13:07:24;;;;;;;5.35;3.90;;;;;;;;;;5033487;28;20231;-85
2021/03/30 13:10:28;;;;;;;7.97;3.88;;;;;;;;;;5021862;28;20628;-87
2021/03/30 13:13:32;;;;;;;6.38;3.10;;;;;;;;;;5023316;28;20214;-87
2021/03/30 13:16:36;;;;;;;31.45;5.47;;;;;;;;;;5040854;28;20531;-85
2021/03/30 13:19:41;;;;;;;6.63;4.05;;;;;;;;;;5018585;28;20193;-86
2021/03/30 13:22:45;;;;;;;4.85;3.65;;;;;;;;;;5053532;28;20175;-85
2021/03/30 13:25:50;;;;;;;14.65;3.92;;;;;;;;;;5029300;28;20202;-85
2021/03/30 13:28:54;;;;;;;5.75;3.42;;;;;;;;;;5041181;28;20193;-89
2021/03/30 13:31:58;;;;;;;5.57;3.55;;;;;;;;;;5018660;28;20222;-86
2021/03/30 13:35:03;;;;;;;4.50;3.15;;;;;;;;;;5022078;28;20217;-86
2021/03/30 13:38:07;;;;;;;7.30;3.40;;;;;;;;;;5041001;28;20226;-86
2021/03/30 13:41:13;;;;;;;4.40;3.05;;;;;;;;;;5029856;28;20178;-86
2021/03/30 13:44:19;;;;;;;10.93;3.45;;;;;;;;;;5054634;28;20173;-87
2021/03/30 13:47:23;;;;;;;4.18;3.30;;;;;;;;;;5045300;28;20216;-88
2021/03/30 13:50:30;;;;;;;4.63;3.38;;;;;;;;;;5045603;28;20210;-86
2021/03/30 13:53:48;;;;;;;5.10;3.55;;;;;;;;;;5035479;28;20212;-86
2021/03/30 13:56:53;;;;;;;4.93;2.67;;;;;;;;;;5033399;28;20234;-86
2021/03/30 13:59:56;;;;;;;4.82;3.38;;;;;;;;;;5033837;28;20504;-86
2021/03/30 14:03:01;;;;;;;10.63;3.00;;;;;;;;;;5044739;28;20177;-86
2021/03/30 14:06:05;;;;;;;10.63;2.88;;;;;;;;;;5033388;28;20176;-86
2021/03/30 14:09:09;;;;;;;5.03;2.75;;;;;;;;;;5022275;28;20210;-86
2021/03/30 14:12:16;;;;;;;6.13;2.80;;;;;;;;;;5044667;28;20211;-86
2021/03/30 14:15:46;;;;;;;4.63;2.70;;;;;;;;;;5044549;28;20183;-86
2021/03/30 14:22:03;;;;;;;4.45;2.33;;;;;;;;;;5032975;28;20176;-86
2021/03/30 14:25:19;;;;;;;5.32;2.47;;;;;;;;;;5002081;28;20629;-86
2021/03/30 14:28:23;;;;;;;8.00;2.60;;;;;;;;;;5030048;28;20220;-86
2021/03/30 14:31:28;;;;;;;8.10;2.60;;;;;;;;;;5021456;28;20181;-86
2021/03/30 14:34:32;;;;;;;3.00;2.10;;;;;;;;;;5022165;28;20191;-87
2021/03/30 14:37:36;;;;;;;4.25;2.58;;;;;;;;;;5044106;28;20566;-86
2021/03/30 14:40:50;;;;;;;6.85;2.35;;;;;;;;;;5032555;28;20200;-86
2021/03/30 14:44:19;;;;;;;7.35;3.15;;;;;;;;;;5021116;28;20184;-86
2021/03/30 14:54:05;;;;;;;4.43;2.70;;;;;;;;;;5043769;28;20203;-86
2021/03/30 14:57:15;;;;;;;4.67;2.50;;;;;;;;;;5032123;28;20222;-86
2021/03/30 15:03:31;;;;;;;21.23;3.63;;;;;;;;;;5043641;28;20177;-87
2021/03/30 15:06:36;;;;;;;6.67;2.80;;;;;;;;;;5018887;28;20178;-87
2021/03/30 15:09:40;;;;;;;4.00;2.40;;;;;;;;;;5020587;28;20193;-87
2021/03/30 15:12:45;;;;;;;3.90;2.67;;;;;;;;;;5031853;28;20210;-87
2021/03/30 15:15:51;;;;;;;11.17;3.50;;;;;;;;;;5032005;28;20180;-87
2021/03/30 15:18:55;;;;;;;10.10;2.93;;;;;;;;;;5021024;28;20620;-86
2021/03/30 15:21:59;;;;;;;15.67;3.60;;;;;;;;;;5043223;28;20184;-86
2021/03/30 15:25:04;;;;;;;32.73;4.13;;;;;;;;;;5031977;28;20205;-87
2021/03/30 15:28:09;;;;;;;3.97;2.70;;;;;;;;;;5042753;28;20214;-87
2021/03/30 15:31:13;;;;;;;5.40;3.20;;;;;;;;;;5032074;28;20536;-87
2021/03/30 15:34:17;;;;;;;4.67;3.30;;;;;;;;;;5020145;28;20551;-87
2021/03/30 15:37:22;;;;;;;6.63;2.80;;;;;;;;;;5020402;28;20217;-87
2021/03/30 15:40:27;;;;;;;5.13;2.97;;;;;;;;;;5020597;28;20223;-86
2021/03/30 15:43:33;;;;;;;3.77;2.70;;;;;;;;;;5031627;28;20178;-87
2021/03/30 15:50:06;;;;;;;4.63;2.40;;;;;;;;;;5042689;28;20180;-86
2021/03/30 15:53:14;;;;;;;16.30;4.13;;;;;;;;;;5031364;28;20204;-86
2021/03/30 15:56:18;;;;;;;5.57;2.90;;;;;;;;;;5019901;28;20204;-86
2021/03/30 15:59:22;;;;;;;10.53;2.70;;;;;;;;;;5020226;28;20180;-86
2021/03/30 16:02:27;;;;;;;5.63;2.70;;;;;;;;;;5019930;28;20176;-86
2021/03/30 16:05:32;;;;;;;8.00;2.90;;;;;;;;;;5042361;28;20643;-86
2021/03/30 16:08:36;;;;;;;6.63;2.60;;;;;;;;;;5032005;28;20228;-86
2021/03/30 16:11:48;;;;;;;6.00;3.00;;;;;;;;;;5041947;28;20188;-86
2021/03/30 16:14:52;;;;;;;4.57;2.50;;;;;;;;;;5030856;28;20168;-86
2021/03/30 16:17:57;;;;;;;5.17;2.60;;;;;;;;;;5042113;28;20231;-85
2021/03/30 16:21:01;;;;;;;8.37;2.70;;;;;;;;;;5011050;28;20667;-85
2021/03/30 16:24:05;;;;;;;7.37;3.13;;;;;;;;;;5022460;28;20196;-85
2021/03/30 16:27:11;;;;;;;6.60;3.10;;;;;;;;;;5022069;28;20217;-85
2021/03/30 16:30:15;;;;;;;6.00;3.10;;;;;;;;;;5033433;28;20184;-85
2021/03/30 16:33:19;;;;;;;6.47;3.43;;;;;;;;;;5010735;28;20197;-85
2021/03/30 16:36:24;;;;;;;6.90;3.30;;;;;;;;;;5033158;28;20632;-85
2021/03/30 16:39:28;;;;;;;5.07;2.80;;;;;;;;;;5010463;28;20196;-86
2021/03/30 16:42:34;;;;;;;6.53;2.83;;;;;;;;;;5033325;28;20205;-85
2021/03/30 16:45:38;;;;;;;6.90;3.60;;;;;;;;;;5011874;28;20184;-85
2021/03/30 16:48:42;;;;;;;5.97;2.73;;;;;;;;;;5022136;28;20212;-85
2021/03/30 16:51:47;;;;;;;11.30;3.00;;;;;;;;;;5022298;28;20200;-86
2021/03/30 16:54:51;;;;;;;11.13;2.97;;;;;;;;;;5010876;28;20173;-85
2021/03/30 16:58:03;;;;;;;9.80;3.00;;;;;;;;;;5017409;28;20220;-87
2021/03/30 17:01:07;;;;;;;9.17;2.57;;;;;;;;;;5019559;28;20185;-86
2021/03/30 17:04:12;;;;;;;5.27;2.40;;;;;;;;;;5018935;28;20180;-86
2021/03/30 17:07:16;;;;;;;6.03;2.47;;;;;;;;;;5017407;28;20710;-86
2021/03/30 17:10:20;;;;;;;5.03;1.83;;;;;;;;;;5017443;28;20199;-86
2021/03/30 17:13:24;;;;;;;4.23;2.07;;;;;;;;;;5018517;28;20199;-87
2021/03/30 17:16:29;;;;;;;5.03;2.20;;;;;;;;;;5018108;28;20208;-91
2021/03/30 17:19:33;;;;;;;3.37;1.87;;;;;;;;;;4998507;28;20252;-87
2021/03/30 17:22:38;;;;;;;8.73;1.87;;;;;;;;;;5010128;28;20200;-87
2021/03/30 17:25:43;;;;;;;3.10;1.80;;;;;;;;;;5021761;28;20181;-87
2021/03/30 17:28:47;;;;;;;2.87;1.80;;;;;;;;;;5010065;28;20537;-88
2021/03/30 17:31:51;;;;;;;5.33;1.93;;;;;;;;;;5010396;28;20184;-87
2021/03/30 17:34:56;;;;;;;4.87;2.00;;;;;;;;;;5010319;28;20200;-87
2021/03/30 17:38:01;;;;;;;2.77;1.50;;;;;;;;;;4999231;28;20224;-87
2021/03/30 17:41:07;;;;;;;7.37;1.60;;;;;;;;;;4998491;28;20188;-87
2021/03/30 17:44:11;;;;;;;7.17;1.57;;;;;;;;;;5029548;28;20188;-89
2021/03/30 17:47:15;;;;;;;5.10;1.73;;;;;;;;;;5018557;28;20211;-84
2021/03/30 17:50:20;;;;;;;3.67;1.67;;;;;;;;;;5018877;28;20176;-87
2021/03/30 17:53:26;;;;;;;4.97;1.80;;;;;;;;;;5029626;28;20208;-87
2021/03/30 17:56:30;;;;;;;4.93;1.60;;;;;;;;;;5018252;28;20188;-87
2021/03/30 17:59:33;;;;;;;5.60;1.83;;;;;;;;;;5018793;28;20180;-87
2021/03/30 18:02:40;;;;;;;3.77;2.13;;;;;;;;;;5030125;28;20176;-87
2021/03/30 18:05:44;;;;;;;7.67;1.97;;;;;;;;;;5040821;28;20793;-87
2021/03/30 18:08:48;;;;;;;9.17;1.90;;;;;;;;;;5018105;28;20180;-86
2021/03/30 18:11:52;;;;;;;4.63;1.73;;;;;;;;;;5018622;28;20180;-86
2021/03/30 18:14:56;;;;;;;2.80;1.80;;;;;;;;;;5018456;28;20199;-86
2021/03/30 18:18:01;;;;;;;4.20;2.30;;;;;;;;;;5018116;28;20216;-86
2021/03/30 18:21:05;;;;;;;7.00;2.50;;;;;;;;;;5018373;28;20181;-88
2021/03/30 18:24:09;;;;;;;5.53;2.20;;;;;;;;;;5040657;28;20540;-88
2021/03/30 18:27:14;;;;;;;4.53;2.20;;;;;;;;;;5018214;28;20694;-87
2021/03/30 18:30:18;;;;;;;3.13;1.93;;;;;;;;;;5029972;28;20655;-87
2021/03/30 18:33:22;;;;;;;7.43;2.30;;;;;;;;;;5021246;28;20562;-87
2021/03/30 18:36:26;;;;;;;3.93;1.90;;;;;;;;;;5031819;28;20207;-87
2021/03/30 18:39:30;;;;;;;4.83;2.20;;;;;;;;;;5044383;28;20184;-86
2021/03/30 18:42:40;;;;;;;4.90;1.93;;;;;;;;;;5021453;28;20184;-86
2021/03/30 18:45:46;;;;;;;4.57;2.00;;;;;;;;;;5044191;28;20176;-87
2021/03/30 18:48:50;;;;;;;3.73;2.30;;;;;;;;;;5032403;28;20192;-87
2021/03/30 18:51:54;;;;;;;3.80;2.23;;;;;;;;;;5021564;28;20199;-86